TimeMDT,TemperatureF,Dew PointF,Humidity,Sea Level PressureIn,VisibilityMPH,Wind Direction,Wind SpeedMPH,Gust SpeedMPH,PrecipitationIn,Events,Conditions,WindDirDegrees,DateUTC
12:53 AM,16.0,10.9,81,29.96,10.0,SE,5.8,-,N/A,,Clear,140,2013-04-11 06:53:00
1:53 AM,18.0,12.9,81,29.93,10.0,SSE,6.9,-,N/A,,Clear,160,2013-04-11 07:53:00
2:53 AM,19.0,12.9,77,29.89,10.0,South,11.5,-,N/A,,Mostly Cloudy,170,2013-04-11 08:53:00
3:53 AM,21.0,14.0,74,29.87,10.0,South,13.8,-,N/A,,Overcast,170,2013-04-11 09:53:00
4:53 AM,24.1,15.1,69,29.86,10.0,Calm,Calm,-,N/A,,Overcast,0,2013-04-11 10:53:00
5:53 AM,24.1,18.0,77,29.86,10.0,Calm,Calm,-,0.00,,Overcast,0,2013-04-11 11:53:00
6:53 AM,24.1,19.0,81,29.87,10.0,North,-9999.0,-,N/A,,Overcast,0,2013-04-11 12:53:00
7:53 AM,26.1,19.9,78,29.89,10.0,Calm,Calm,-,N/A,,Overcast,0,2013-04-11 13:53:00
8:27 AM,26.6,19.4,74,29.76,10.0,Calm,Calm,-,N/A,,Overcast,0,2013-04-11 14:27:00
8:53 AM,30.0,21.9,72,29.88,10.0,Calm,Calm,-,N/A,,Overcast,0,2013-04-11 14:53:00
9:01 AM,30.2,21.2,69,29.76,10.0,Calm,Calm,-,N/A,,Overcast,0,2013-04-11 15:01:00
9:53 AM,33.1,24.1,70,29.88,10.0,West,9.2,-,N/A,,Overcast,280,2013-04-11 15:53:00
10:53 AM,35.6,26.6,70,29.76,10.0,NW,10.4,-,N/A,,Overcast,310,2013-04-11 16:53:00
11:25 AM,35.6,30.2,81,29.77,10.0,NNW,15.0,-,N/A,,Overcast,330,2013-04-11 17:25:00
11:53 AM,36.0,30.0,79,29.88,10.0,NNW,15.0,-,N/A,,Overcast,330,2013-04-11 17:53:00
12:53 PM,37.0,30.9,79,29.88,10.0,NNW,9.2,-,N/A,,Overcast,340,2013-04-11 18:53:00
1:04 PM,35.6,30.2,81,29.78,10.0,NNW,8.1,-,N/A,,Overcast,340,2013-04-11 19:04:00
1:53 PM,37.0,30.9,79,29.87,10.0,NNW,11.5,-,N/A,,Overcast,340,2013-04-11 19:53:00
2:53 PM,37.9,33.1,83,29.87,10.0,NNW,8.1,-,N/A,,Overcast,330,2013-04-11 20:53:00
3:53 PM,37.9,34.0,86,29.88,10.0,NNW,15.0,-,N/A,,Overcast,340,2013-04-11 21:53:00
4:53 PM,39.9,34.0,79,29.86,10.0,NNW,12.7,-,N/A,,Partly Cloudy,340,2013-04-11 22:53:00
5:53 PM,39.0,33.1,79,29.87,10.0,NNW,10.4,-,N/A,,Mostly Cloudy,340,2013-04-11 23:53:00
6:53 PM,37.9,32.0,79,29.88,10.0,North,8.1,-,N/A,,Mostly Cloudy,360,2013-04-12 00:53:00
7:53 PM,36.0,32.0,86,29.89,10.0,NNE,4.6,-,N/A,,Mostly Cloudy,20,2013-04-12 01:53:00
8:15 PM,33.8,33.8,100,29.83,10.0,ENE,6.9,-,N/A,,Mostly Cloudy,70,2013-04-12 02:15:00
8:28 PM,35.6,33.8,93,29.83,10.0,ENE,5.8,-,N/A,,Mostly Cloudy,70,2013-04-12 02:28:00
8:53 PM,36.0,34.0,93,29.91,10.0,ENE,4.6,-,N/A,,Overcast,60,2013-04-12 02:53:00
9:50 PM,33.8,33.8,100,29.86,10.0,Calm,Calm,-,N/A,,Overcast,0,2013-04-12 03:50:00
9:53 PM,34.0,33.1,96,29.92,10.0,Calm,Calm,-,N/A,,Mostly Cloudy,0,2013-04-12 03:53:00
10:22 PM,32.0,30.2,93,29.86,9.0,Calm,Calm,-,N/A,,Mostly Cloudy,0,2013-04-12 04:22:00
10:40 PM,30.2,30.2,100,29.86,8.0,Calm,Calm,-,N/A,,Mostly Cloudy,0,2013-04-12 04:40:00
10:53 PM,30.0,30.0,100,29.93,8.0,WSW,3.5,-,N/A,,Mostly Cloudy,240,2013-04-12 04:53:00
11:53 PM,30.0,28.9,96,29.92,9.0,SW,3.5,-,N/A,,Scattered Clouds,230,2013-04-12 05:53:00